CheckWX is a tool to help pilots better visualize weather data.  It is not intended as a substitute for an official pre-flight weather briefing.

12:42:34 UTC

EDVE TAF
Braunschweig Wolfsburg Airport
Germany
TAF EDVE 030750Z 0308/0315 25011G21KT 9999 SCT030 PROB30 TEMPO 0308/0310 BKN013

Jul-3@
08:00 UTC

Jul-3 @ 08:00 UTC

Jul-3@
15:00 UTC

Jul-3 @ 15:00 UTC

TAF EDVE 030750Z 0308/0315 25011G21KT 9999 SCT030
Wind
  • 250° at 11 KTS
  • {Gusting to 21 KTS
Cloud Levels
  • Scattered at 3,000' AGL

Jul-3@
08:00 UTC

Jul-3 @ 08:00 UTC

Jul-3@
10:00 UTC

Jul-3 @ 10:00 UTC

PROB30 TEMPO 0308/0310 BKN013

Expired

Cloud Levels
  • Broken at 1,300' AGL